sensor_id;sensor_type;location;lat;lon;timestamp;P1;durP1;ratioP1;P2;durP2;ratioP2
16673;SDS011;8450;52.654;10.326;2022-10-26T06:48:04;6.47;;;5.40;;
16673;SDS011;8450;52.654;10.326;2022-10-26T06:50:45;5.17;;;4.30;;
16673;SDS011;8450;52.654;10.326;2022-10-26T06:53:35;5.20;;;4.70;;
16673;SDS011;8450;52.654;10.326;2022-10-26T06:58:33;4.50;;;4.10;;
16673;SDS011;8450;52.654;10.326;2022-10-26T07:01:01;5.10;;;4.60;;
16673;SDS011;8450;52.654;10.326;2022-10-26T07:03:27;4.70;;;4.17;;
16673;SDS011;8450;52.654;10.326;2022-10-26T07:05:52;4.70;;;4.30;;
16673;SDS011;8450;52.654;10.326;2022-10-26T07:08:18;6.07;;;5.47;;
16673;SDS011;8450;52.654;10.326;2022-10-26T07:10:45;4.83;;;4.43;;
16673;SDS011;8450;52.654;10.326;2022-10-26T07:13:11;5.50;;;5.00;;
16673;SDS011;8450;52.654;10.326;2022-10-26T07:15:37;5.20;;;4.70;;
16673;SDS011;8450;52.654;10.326;2022-10-26T07:18:04;5.13;;;4.67;;
16673;SDS011;8450;52.654;10.326;2022-10-26T07:20:31;5.57;;;4.70;;
16673;SDS011;8450;52.654;10.326;2022-10-26T07:23:00;7.03;;;5.20;;
16673;SDS011;8450;52.654;10.326;2022-10-26T07:25:26;6.50;;;4.90;;
16673;SDS011;8450;52.654;10.326;2022-10-26T07:27:56;5.03;;;4.43;;
16673;SDS011;8450;52.654;10.326;2022-10-26T07:30:22;7.10;;;4.87;;
16673;SDS011;8450;52.654;10.326;2022-10-26T07:32:48;6.57;;;4.30;;
16673;SDS011;8450;52.654;10.326;2022-10-26T07:35:13;5.27;;;4.73;;
16673;SDS011;8450;52.654;10.326;2022-10-26T07:37:39;4.93;;;4.43;;
16673;SDS011;8450;52.654;10.326;2022-10-26T07:40:05;5.83;;;4.57;;
16673;SDS011;8450;52.654;10.326;2022-10-26T07:42:31;5.30;;;4.07;;
16673;SDS011;8450;52.654;10.326;2022-10-26T07:44:56;5.57;;;4.80;;
16673;SDS011;8450;52.654;10.326;2022-10-26T07:47:22;5.53;;;4.57;;
16673;SDS011;8450;52.654;10.326;2022-10-26T07:49:48;7.87;;;4.93;;
16673;SDS011;8450;52.654;10.326;2022-10-26T07:52:13;7.47;;;4.37;;
16673;SDS011;8450;52.654;10.326;2022-10-26T07:54:39;6.73;;;5.17;;
16673;SDS011;8450;52.654;10.326;2022-10-26T07:57:04;8.80;;;4.43;;
16673;SDS011;8450;52.654;10.326;2022-10-26T07:59:30;6.97;;;4.50;;
16673;SDS011;8450;52.654;10.326;2022-10-26T08:01:55;6.00;;;4.27;;
16673;SDS011;8450;52.654;10.326;2022-10-26T08:04:21;6.27;;;4.40;;
16673;SDS011;8450;52.654;10.326;2022-10-26T08:06:46;5.13;;;4.50;;
16673;SDS011;8450;52.654;10.326;2022-10-26T08:09:12;5.77;;;4.30;;
16673;SDS011;8450;52.654;10.326;2022-10-26T08:11:38;4.17;;;3.70;;
16673;SDS011;8450;52.654;10.326;2022-10-26T08:14:04;4.70;;;3.90;;
16673;SDS011;8450;52.654;10.326;2022-10-26T08:16:29;4.80;;;4.20;;
16673;SDS011;8450;52.654;10.326;2022-10-26T08:18:55;5.03;;;4.13;;
16673;SDS011;8450;52.654;10.326;2022-10-26T08:21:21;4.03;;;3.53;;
16673;SDS011;8450;52.654;10.326;2022-10-26T08:23:47;3.67;;;3.37;;
16673;SDS011;8450;52.654;10.326;2022-10-26T08:26:12;4.33;;;3.40;;
16673;SDS011;8450;52.654;10.326;2022-10-26T08:28:38;5.90;;;3.93;;
16673;SDS011;8450;52.654;10.326;2022-10-26T08:31:04;4.27;;;3.27;;
16673;SDS011;8450;52.654;10.326;2022-10-26T08:33:31;3.63;;;3.23;;
16673;SDS011;8450;52.654;10.326;2022-10-26T08:35:57;3.50;;;3.20;;
16673;SDS011;8450;52.654;10.326;2022-10-26T08:38:23;4.50;;;3.40;;
16673;SDS011;8450;52.654;10.326;2022-10-26T08:40:49;2.90;;;2.70;;
16673;SDS011;8450;52.654;10.326;2022-10-26T08:45:57;3.87;;;3.13;;
16673;SDS011;8450;52.654;10.326;2022-10-26T08:48:28;3.87;;;3.10;;
16673;SDS011;8450;52.654;10.326;2022-10-26T08:50:58;4.40;;;3.13;;
16673;SDS011;8450;52.654;10.326;2022-10-26T08:53:42;3.20;;;2.90;;
16673;SDS011;8450;52.654;10.326;2022-10-26T08:56:19;3.00;;;2.70;;
16673;SDS011;8450;52.654;10.326;2022-10-26T08:58:52;3.43;;;3.13;;
16673;SDS011;8450;52.654;10.326;2022-10-26T09:01:20;4.43;;;2.97;;
16673;SDS011;8450;52.654;10.326;2022-10-26T09:03:46;3.30;;;2.97;;
16673;SDS011;8450;52.654;10.326;2022-10-26T09:06:20;3.17;;;2.87;;
16673;SDS011;8450;52.654;10.326;2022-10-26T09:11:26;4.87;;;3.33;;
16673;SDS011;8450;52.654;10.326;2022-10-26T09:14:09;2.87;;;2.63;;
16673;SDS011;8450;52.654;10.326;2022-10-26T09:20:00;5.27;;;3.17;;
16673;SDS011;8450;52.654;10.326;2022-10-26T09:25:28;3.27;;;2.97;;
16673;SDS011;8450;52.654;10.326;2022-10-26T09:28:01;2.80;;;2.57;;
16673;SDS011;8450;52.654;10.326;2022-10-26T09:30:29;4.57;;;3.30;;
16673;SDS011;8450;52.654;10.326;2022-10-26T09:32:56;3.43;;;2.90;;
16673;SDS011;8450;52.654;10.326;2022-10-26T09:35:24;5.13;;;3.27;;
16673;SDS011;8450;52.654;10.326;2022-10-26T09:38:09;3.20;;;2.80;;
16673;SDS011;8450;52.654;10.326;2022-10-26T09:46:12;2.83;;;2.50;;
16673;SDS011;8450;52.654;10.326;2022-10-26T09:48:47;2.87;;;2.57;;
16673;SDS011;8450;52.654;10.326;2022-10-26T09:51:15;4.43;;;2.83;;
16673;SDS011;8450;52.654;10.326;2022-10-26T09:53:42;2.63;;;2.43;;
16673;SDS011;8450;52.654;10.326;2022-10-26T09:56:11;3.23;;;2.40;;
16673;SDS011;8450;52.654;10.326;2022-10-26T09:58:41;4.33;;;2.67;;
16673;SDS011;8450;52.654;10.326;2022-10-26T10:06:37;3.37;;;2.90;;
16673;SDS011;8450;52.654;10.326;2022-10-26T10:09:04;3.80;;;2.60;;
16673;SDS011;8450;52.654;10.326;2022-10-26T10:11:48;3.23;;;2.80;;
16673;SDS011;8450;52.654;10.326;2022-10-26T10:14:26;4.07;;;2.57;;
16673;SDS011;8450;52.654;10.326;2022-10-26T10:16:54;4.37;;;2.53;;
16673;SDS011;8450;52.654;10.326;2022-10-26T10:19:25;3.03;;;2.53;;
16673;SDS011;8450;52.654;10.326;2022-10-26T10:21:54;3.13;;;2.50;;
16673;SDS011;8450;52.654;10.326;2022-10-26T10:24:29;3.10;;;2.53;;
16673;SDS011;8450;52.654;10.326;2022-10-26T10:26:58;3.47;;;3.10;;
16673;SDS011;8450;52.654;10.326;2022-10-26T10:29:30;3.33;;;2.60;;
16673;SDS011;8450;52.654;10.326;2022-10-26T10:31:58;3.30;;;3.00;;
16673;SDS011;8450;52.654;10.326;2022-10-26T10:34:25;4.40;;;2.87;;
16673;SDS011;8450;52.654;10.326;2022-10-26T10:36:54;5.50;;;2.73;;
16673;SDS011;8450;52.654;10.326;2022-10-26T10:39:25;4.37;;;2.60;;
16673;SDS011;8450;52.654;10.326;2022-10-26T10:41:58;3.13;;;2.63;;
16673;SDS011;8450;52.654;10.326;2022-10-26T10:44:25;3.13;;;2.83;;
16673;SDS011;8450;52.654;10.326;2022-10-26T10:47:00;3.93;;;2.60;;
16673;SDS011;8450;52.654;10.326;2022-10-26T10:49:27;3.97;;;2.67;;
16673;SDS011;8450;52.654;10.326;2022-10-26T10:51:54;7.00;;;3.70;;
16673;SDS011;8450;52.654;10.326;2022-10-26T10:54:26;2.97;;;2.70;;
16673;SDS011;8450;52.654;10.326;2022-10-26T10:57:02;2.77;;;2.57;;
16673;SDS011;8450;52.654;10.326;2022-10-26T10:59:56;3.17;;;2.87;;
16673;SDS011;8450;52.654;10.326;2022-10-26T11:02:45;3.63;;;3.00;;
16673;SDS011;8450;52.654;10.326;2022-10-26T11:05:32;4.13;;;2.73;;
16673;SDS011;8450;52.654;10.326;2022-10-26T11:08:04;3.53;;;2.27;;
16673;SDS011;8450;52.654;10.326;2022-10-26T11:10:47;3.10;;;2.20;;
16673;SDS011;8450;52.654;10.326;2022-10-26T11:13:25;4.23;;;2.57;;
16673;SDS011;8450;52.654;10.326;2022-10-26T11:15:59;2.60;;;2.30;;
16673;SDS011;8450;52.654;10.326;2022-10-26T11:18:50;4.60;;;2.23;;
16673;SDS011;8450;52.654;10.326;2022-10-26T11:21:30;3.43;;;2.47;;
16673;SDS011;8450;52.654;10.326;2022-10-26T11:24:03;3.43;;;2.63;;
16673;SDS011;8450;52.654;10.326;2022-10-26T11:26:40;2.90;;;2.70;;
16673;SDS011;8450;52.654;10.326;2022-10-26T11:29:34;3.27;;;2.37;;
16673;SDS011;8450;52.654;10.326;2022-10-26T11:32:15;2.57;;;2.33;;
16673;SDS011;8450;52.654;10.326;2022-10-26T11:37:43;4.80;;;2.57;;
16673;SDS011;8450;52.654;10.326;2022-10-26T11:40:29;2.30;;;2.10;;
16673;SDS011;8450;52.654;10.326;2022-10-26T11:43:35;4.70;;;2.70;;
16673;SDS011;8450;52.654;10.326;2022-10-26T11:46:20;2.87;;;2.33;;
16673;SDS011;8450;52.654;10.326;2022-10-26T11:49:10;3.80;;;2.10;;
16673;SDS011;8450;52.654;10.326;2022-10-26T11:51:45;3.00;;;2.10;;
16673;SDS011;8450;52.654;10.326;2022-10-26T11:54:32;2.60;;;2.40;;
16673;SDS011;8450;52.654;10.326;2022-10-26T11:57:09;2.70;;;1.90;;
16673;SDS011;8450;52.654;10.326;2022-10-26T11:59:37;2.97;;;2.20;;
16673;SDS011;8450;52.654;10.326;2022-10-26T12:02:15;2.70;;;2.23;;
16673;SDS011;8450;52.654;10.326;2022-10-26T12:04:44;3.53;;;2.67;;
16673;SDS011;8450;52.654;10.326;2022-10-26T12:07:15;3.67;;;2.30;;
16673;SDS011;8450;52.654;10.326;2022-10-26T12:09:45;3.20;;;2.20;;
16673;SDS011;8450;52.654;10.326;2022-10-26T12:12:25;5.10;;;2.27;;
16673;SDS011;8450;52.654;10.326;2022-10-26T12:15:02;3.53;;;1.90;;
16673;SDS011;8450;52.654;10.326;2022-10-26T12:23:04;4.73;;;2.40;;
16673;SDS011;8450;52.654;10.326;2022-10-26T12:25:33;4.50;;;2.10;;
16673;SDS011;8450;52.654;10.326;2022-10-26T12:27:59;2.23;;;2.03;;
16673;SDS011;8450;52.654;10.326;2022-10-26T12:30:29;2.33;;;2.13;;
16673;SDS011;8450;52.654;10.326;2022-10-26T12:32:56;3.00;;;2.40;;
16673;SDS011;8450;52.654;10.326;2022-10-26T12:40:48;3.80;;;2.00;;
16673;SDS011;8450;52.654;10.326;2022-10-26T12:43:48;3.03;;;2.03;;
16673;SDS011;8450;52.654;10.326;2022-10-26T12:48:42;2.77;;;2.23;;
16673;SDS011;8450;52.654;10.326;2022-10-26T12:51:17;2.97;;;1.90;;
16673;SDS011;8450;52.654;10.326;2022-10-26T13:01:55;2.40;;;1.90;;
16673;SDS011;8450;52.654;10.326;2022-10-26T13:04:51;3.40;;;2.37;;
